sensor_id;sensor_type;location;lat;lon;timestamp;P1;durP1;ratioP1;P2;durP2;ratioP2
41903;SDS011;27586;51.124;4.182;2024-03-17T00:00:22;8.80;;;6.88;;
41903;SDS011;27586;51.124;4.182;2024-03-17T00:02:48;9.88;;;6.65;;
41903;SDS011;27586;51.124;4.182;2024-03-17T00:05:14;7.72;;;6.72;;
41903;SDS011;27586;51.124;4.182;2024-03-17T00:07:40;8.02;;;6.50;;
41903;SDS011;27586;51.124;4.182;2024-03-17T00:10:06;9.20;;;6.22;;
41903;SDS011;27586;51.124;4.182;2024-03-17T00:12:35;9.10;;;6.10;;
41903;SDS011;27586;51.124;4.182;2024-03-17T00:15:02;8.80;;;6.75;;
41903;SDS011;27586;51.124;4.182;2024-03-17T00:17:29;9.88;;;6.85;;
41903;SDS011;27586;51.124;4.182;2024-03-17T00:19:54;11.95;;;7.50;;
41903;SDS011;27586;51.124;4.182;2024-03-17T00:22:20;8.52;;;6.82;;
41903;SDS011;27586;51.124;4.182;2024-03-17T00:24:46;8.27;;;6.32;;
41903;SDS011;27586;51.124;4.182;2024-03-17T00:27:11;7.00;;;6.20;;
41903;SDS011;27586;51.124;4.182;2024-03-17T00:29:38;7.30;;;5.80;;
41903;SDS011;27586;51.124;4.182;2024-03-17T00:32:04;9.63;;;6.32;;
41903;SDS011;27586;51.124;4.182;2024-03-17T00:34:31;7.68;;;5.78;;
41903;SDS011;27586;51.124;4.182;2024-03-17T00:36:57;8.45;;;6.22;;
41903;SDS011;27586;51.124;4.182;2024-03-17T00:39:22;6.07;;;5.32;;
41903;SDS011;27586;51.124;4.182;2024-03-17T00:41:48;5.55;;;4.97;;
41903;SDS011;27586;51.124;4.182;2024-03-17T00:44:14;6.35;;;5.10;;
41903;SDS011;27586;51.124;4.182;2024-03-17T00:46:40;5.72;;;4.93;;
41903;SDS011;27586;51.124;4.182;2024-03-17T00:49:07;5.88;;;4.53;;
41903;SDS011;27586;51.124;4.182;2024-03-17T00:51:34;7.45;;;4.85;;
41903;SDS011;27586;51.124;4.182;2024-03-17T00:53:59;6.35;;;4.90;;
41903;SDS011;27586;51.124;4.182;2024-03-17T00:56:25;4.63;;;4.07;;
41903;SDS011;27586;51.124;4.182;2024-03-17T00:58:51;5.63;;;4.15;;
41903;SDS011;27586;51.124;4.182;2024-03-17T01:01:17;6.65;;;4.80;;
41903;SDS011;27586;51.124;4.182;2024-03-17T01:03:44;5.78;;;4.50;;
41903;SDS011;27586;51.124;4.182;2024-03-17T01:06:10;5.38;;;4.35;;
41903;SDS011;27586;51.124;4.182;2024-03-17T01:08:36;5.15;;;4.22;;
41903;SDS011;27586;51.124;4.182;2024-03-17T01:11:02;5.18;;;4.57;;
41903;SDS011;27586;51.124;4.182;2024-03-17T01:13:28;6.43;;;4.50;;
41903;SDS011;27586;51.124;4.182;2024-03-17T01:15:53;5.20;;;4.20;;
41903;SDS011;27586;51.124;4.182;2024-03-17T01:18:19;5.68;;;4.70;;
41903;SDS011;27586;51.124;4.182;2024-03-17T01:20:45;5.78;;;4.78;;
41903;SDS011;27586;51.124;4.182;2024-03-17T01:23:11;6.15;;;4.47;;
41903;SDS011;27586;51.124;4.182;2024-03-17T01:25:36;6.88;;;4.90;;
41903;SDS011;27586;51.124;4.182;2024-03-17T01:28:05;5.70;;;4.70;;
41903;SDS011;27586;51.124;4.182;2024-03-17T01:30:31;5.32;;;4.78;;
41903;SDS011;27586;51.124;4.182;2024-03-17T01:33:00;5.38;;;4.72;;
41903;SDS011;27586;51.124;4.182;2024-03-17T01:35:27;5.93;;;5.32;;
41903;SDS011;27586;51.124;4.182;2024-03-17T01:37:52;7.53;;;5.00;;
41903;SDS011;27586;51.124;4.182;2024-03-17T01:40:18;7.47;;;5.50;;
41903;SDS011;27586;51.124;4.182;2024-03-17T01:42:44;6.40;;;5.50;;
41903;SDS011;27586;51.124;4.182;2024-03-17T01:47:54;8.05;;;5.38;;
41903;SDS011;27586;51.124;4.182;2024-03-17T01:50:25;6.55;;;5.47;;
41903;SDS011;27586;51.124;4.182;2024-03-17T01:52:54;7.43;;;5.60;;
41903;SDS011;27586;51.124;4.182;2024-03-17T01:55:24;5.90;;;5.30;;
41903;SDS011;27586;51.124;4.182;2024-03-17T01:57:52;8.18;;;5.32;;
41903;SDS011;27586;51.124;4.182;2024-03-17T02:00:18;8.20;;;5.75;;
41903;SDS011;27586;51.124;4.182;2024-03-17T02:02:44;6.00;;;5.40;;
41903;SDS011;27586;51.124;4.182;2024-03-17T02:05:10;6.20;;;5.60;;
41903;SDS011;27586;51.124;4.182;2024-03-17T02:07:36;6.40;;;5.47;;
41903;SDS011;27586;51.124;4.182;2024-03-17T02:10:01;6.90;;;5.97;;
41903;SDS011;27586;51.124;4.182;2024-03-17T02:12:31;8.13;;;5.47;;
41903;SDS011;27586;51.124;4.182;2024-03-17T02:14:57;7.03;;;5.40;;
41903;SDS011;27586;51.124;4.182;2024-03-17T02:17:23;6.68;;;5.65;;
41903;SDS011;27586;51.124;4.182;2024-03-17T02:19:50;6.03;;;5.18;;
41903;SDS011;27586;51.124;4.182;2024-03-17T02:22:17;6.22;;;5.38;;
41903;SDS011;27586;51.124;4.182;2024-03-17T02:24:43;7.80;;;5.90;;
41903;SDS011;27586;51.124;4.182;2024-03-17T02:27:09;6.15;;;5.18;;
41903;SDS011;27586;51.124;4.182;2024-03-17T02:29:35;7.22;;;5.40;;
41903;SDS011;27586;51.124;4.182;2024-03-17T02:32:05;6.07;;;5.40;;
41903;SDS011;27586;51.124;4.182;2024-03-17T02:34:34;7.03;;;5.75;;
41903;SDS011;27586;51.124;4.182;2024-03-17T02:37:03;5.93;;;5.05;;
41903;SDS011;27586;51.124;4.182;2024-03-17T02:39:29;6.90;;;5.53;;
41903;SDS011;27586;51.124;4.182;2024-03-17T02:42:05;6.40;;;5.80;;
41903;SDS011;27586;51.124;4.182;2024-03-17T02:44:32;7.85;;;5.05;;
41903;SDS011;27586;51.124;4.182;2024-03-17T02:46:59;7.10;;;5.43;;
41903;SDS011;27586;51.124;4.182;2024-03-17T02:49:26;7.18;;;5.65;;
41903;SDS011;27586;51.124;4.182;2024-03-17T02:51:56;5.80;;;5.20;;
41903;SDS011;27586;51.124;4.182;2024-03-17T02:54:22;7.10;;;5.18;;
41903;SDS011;27586;51.124;4.182;2024-03-17T02:56:48;7.68;;;5.07;;
41903;SDS011;27586;51.124;4.182;2024-03-17T02:59:14;7.20;;;5.78;;
41903;SDS011;27586;51.124;4.182;2024-03-17T03:01:39;6.13;;;4.82;;
41903;SDS011;27586;51.124;4.182;2024-03-17T03:04:05;6.97;;;5.47;;
41903;SDS011;27586;51.124;4.182;2024-03-17T03:06:31;6.68;;;5.22;;
41903;SDS011;27586;51.124;4.182;2024-03-17T03:08:58;6.25;;;4.93;;
41903;SDS011;27586;51.124;4.182;2024-03-17T03:11:24;5.95;;;5.35;;
41903;SDS011;27586;51.124;4.182;2024-03-17T03:13:49;7.93;;;5.85;;
41903;SDS011;27586;51.124;4.182;2024-03-17T03:16:15;6.55;;;5.00;;
41903;SDS011;27586;51.124;4.182;2024-03-17T03:18:41;6.00;;;5.40;;
41903;SDS011;27586;51.124;4.182;2024-03-17T03:21:09;6.32;;;5.38;;
41903;SDS011;27586;51.124;4.182;2024-03-17T03:23:35;6.07;;;5.47;;
41903;SDS011;27586;51.124;4.182;2024-03-17T03:26:02;5.90;;;5.30;;
41903;SDS011;27586;51.124;4.182;2024-03-17T03:28:29;6.68;;;5.40;;
41903;SDS011;27586;51.124;4.182;2024-03-17T03:31:01;7.00;;;5.10;;
41903;SDS011;27586;51.124;4.182;2024-03-17T03:33:27;6.55;;;5.28;;
41903;SDS011;27586;51.124;4.182;2024-03-17T03:35:53;6.40;;;5.28;;
41903;SDS011;27586;51.124;4.182;2024-03-17T03:38:20;6.65;;;5.45;;
41903;SDS011;27586;51.124;4.182;2024-03-17T03:40:47;6.35;;;5.63;;
41903;SDS011;27586;51.124;4.182;2024-03-17T03:43:13;5.97;;;5.38;;
41903;SDS011;27586;51.124;4.182;2024-03-17T03:45:39;7.88;;;5.80;;
41903;SDS011;27586;51.124;4.182;2024-03-17T03:48:06;6.45;;;5.68;;
41903;SDS011;27586;51.124;4.182;2024-03-17T03:50:35;6.82;;;5.65;;
41903;SDS011;27586;51.124;4.182;2024-03-17T03:53:02;6.28;;;5.22;;
41903;SDS011;27586;51.124;4.182;2024-03-17T03:55:28;5.65;;;5.00;;
41903;SDS011;27586;51.124;4.182;2024-03-17T03:57:54;7.35;;;5.28;;
41903;SDS011;27586;51.124;4.182;2024-03-17T04:00:20;6.75;;;5.28;;
41903;SDS011;27586;51.124;4.182;2024-03-17T04:02:49;6.22;;;5.60;;
41903;SDS011;27586;51.124;4.182;2024-03-17T04:05:16;6.47;;;5.25;;
41903;SDS011;27586;51.124;4.182;2024-03-17T04:07:42;6.03;;;5.43;;
41903;SDS011;27586;51.124;4.182;2024-03-17T04:10:11;6.18;;;5.00;;
41903;SDS011;27586;51.124;4.182;2024-03-17T04:12:37;8.60;;;5.28;;
41903;SDS011;27586;51.124;4.182;2024-03-17T04:15:03;5.68;;;5.18;;
41903;SDS011;27586;51.124;4.182;2024-03-17T04:17:31;6.25;;;5.55;;
41903;SDS011;27586;51.124;4.182;2024-03-17T04:19:57;8.32;;;6.05;;
41903;SDS011;27586;51.124;4.182;2024-03-17T04:22:23;6.85;;;5.35;;
41903;SDS011;27586;51.124;4.182;2024-03-17T04:24:49;6.93;;;5.70;;
41903;SDS011;27586;51.124;4.182;2024-03-17T04:27:27;6.35;;;5.30;;
41903;SDS011;27586;51.124;4.182;2024-03-17T04:29:54;6.95;;;5.50;;
41903;SDS011;27586;51.124;4.182;2024-03-17T04:32:21;6.55;;;5.90;;
41903;SDS011;27586;51.124;4.182;2024-03-17T04:34:47;5.72;;;4.97;;
41903;SDS011;27586;51.124;4.182;2024-03-17T04:37:13;6.53;;;5.70;;
41903;SDS011;27586;51.124;4.182;2024-03-17T04:39:39;6.88;;;5.47;;
41903;SDS011;27586;51.124;4.182;2024-03-17T04:42:07;6.93;;;5.65;;
41903;SDS011;27586;51.124;4.182;2024-03-17T04:44:36;6.88;;;5.50;;
41903;SDS011;27586;51.124;4.182;2024-03-17T04:47:02;6.43;;;5.60;;
41903;SDS011;27586;51.124;4.182;2024-03-17T04:49:32;6.43;;;5.43;;
41903;SDS011;27586;51.124;4.182;2024-03-17T04:52:01;7.82;;;5.78;;
41903;SDS011;27586;51.124;4.182;2024-03-17T04:54:27;7.60;;;5.85;;
41903;SDS011;27586;51.124;4.182;2024-03-17T04:56:52;6.50;;;5.50;;
41903;SDS011;27586;51.124;4.182;2024-03-17T04:59:18;7.32;;;5.70;;
41903;SDS011;27586;51.124;4.182;2024-03-17T05:01:44;7.63;;;5.95;;
41903;SDS011;27586;51.124;4.182;2024-03-17T05:04:09;6.90;;;5.70;;
41903;SDS011;27586;51.124;4.182;2024-03-17T05:06:35;7.85;;;5.85;;
41903;SDS011;27586;51.124;4.182;2024-03-17T05:09:01;8.07;;;6.03;;
41903;SDS011;27586;51.124;4.182;2024-03-17T05:11:29;7.85;;;5.78;;
41903;SDS011;27586;51.124;4.182;2024-03-17T05:13:56;7.05;;;6.30;;
41903;SDS011;27586;51.124;4.182;2024-03-17T05:16:22;6.60;;;5.90;;
41903;SDS011;27586;51.124;4.182;2024-03-17T05:18:49;7.05;;;6.10;;
41903;SDS011;27586;51.124;4.182;2024-03-17T05:21:14;8.90;;;6.40;;
41903;SDS011;27586;51.124;4.182;2024-03-17T05:23:40;8.38;;;6.05;;
41903;SDS011;27586;51.124;4.182;2024-03-17T05:26:06;7.93;;;6.05;;
41903;SDS011;27586;51.124;4.182;2024-03-17T05:28:32;9.50;;;5.82;;
41903;SDS011;27586;51.124;4.182;2024-03-17T05:30:58;8.50;;;6.00;;
41903;SDS011;27586;51.124;4.182;2024-03-17T05:33:24;7.47;;;6.47;;
41903;SDS011;27586;51.124;4.182;2024-03-17T05:35:51;7.95;;;5.97;;
41903;SDS011;27586;51.124;4.182;2024-03-17T05:38:18;6.88;;;6.07;;
41903;SDS011;27586;51.124;4.182;2024-03-17T05:40:52;7.80;;;6.38;;
41903;SDS011;27586;51.124;4.182;2024-03-17T05:43:18;8.13;;;6.10;;
41903;SDS011;27586;51.124;4.182;2024-03-17T05:45:44;7.43;;;6.25;;
41903;SDS011;27586;51.124;4.182;2024-03-17T05:48:09;6.75;;;6.05;;
41903;SDS011;27586;51.124;4.182;2024-03-17T05:50:35;6.53;;;5.88;;
41903;SDS011;27586;51.124;4.182;2024-03-17T05:53:01;6.47;;;5.68;;
41903;SDS011;27586;51.124;4.182;2024-03-17T05:55:26;6.85;;;6.03;;
41903;SDS011;27586;51.124;4.182;2024-03-17T05:57:52;6.20;;;5.55;;
41903;SDS011;27586;51.124;4.182;2024-03-17T06:00:19;7.75;;;6.53;;
41903;SDS011;27586;51.124;4.182;2024-03-17T06:02:45;8.65;;;5.05;;
41903;SDS011;27586;51.124;4.182;2024-03-17T06:05:12;6.30;;;5.45;;
41903;SDS011;27586;51.124;4.182;2024-03-17T06:07:39;6.38;;;5.20;;
41903;SDS011;27586;51.124;4.182;2024-03-17T06:10:06;6.10;;;5.50;;
41903;SDS011;27586;51.124;4.182;2024-03-17T06:12:31;6.97;;;5.43;;
41903;SDS011;27586;51.124;4.182;2024-03-17T06:14:57;5.72;;;5.10;;
41903;SDS011;27586;51.124;4.182;2024-03-17T06:17:24;6.30;;;5.70;;
41903;SDS011;27586;51.124;4.182;2024-03-17T06:19:51;6.30;;;5.70;;
41903;SDS011;27586;51.124;4.182;2024-03-17T06:22:17;6.32;;;5.72;;
41903;SDS011;27586;51.124;4.182;2024-03-17T06:24:42;6.45;;;5.70;;
41903;SDS011;27586;51.124;4.182;2024-03-17T06:27:08;7.32;;;6.13;;
41903;SDS011;27586;51.124;4.182;2024-03-17T06:29:34;6.93;;;5.57;;
41903;SDS011;27586;51.124;4.182;2024-03-17T06:31:59;6.95;;;6.03;;
41903;SDS011;27586;51.124;4.182;2024-03-17T06:34:25;7.38;;;6.03;;
41903;SDS011;27586;51.124;4.182;2024-03-17T06:36:51;7.70;;;5.78;;
41903;SDS011;27586;51.124;4.182;2024-03-17T06:39:17;7.80;;;6.40;;
41903;SDS011;27586;51.124;4.182;2024-03-17T06:41:44;8.13;;;6.00;;
41903;SDS011;27586;51.124;4.182;2024-03-17T06:44:10;6.43;;;5.63;;
41903;SDS011;27586;51.124;4.182;2024-03-17T06:46:36;7.68;;;6.30;;
41903;SDS011;27586;51.124;4.182;2024-03-17T06:49:01;7.30;;;5.50;;
41903;SDS011;27586;51.124;4.182;2024-03-17T06:51:27;8.02;;;6.30;;
41903;SDS011;27586;51.124;4.182;2024-03-17T06:53:53;6.80;;;5.90;;
41903;SDS011;27586;51.124;4.182;2024-03-17T06:56:18;7.38;;;6.13;;
41903;SDS011;27586;51.124;4.182;2024-03-17T06:58:44;6.30;;;5.55;;
41903;SDS011;27586;51.124;4.182;2024-03-17T07:01:10;7.15;;;6.07;;
41903;SDS011;27586;51.124;4.182;2024-03-17T07:03:36;7.32;;;5.75;;
41903;SDS011;27586;51.124;4.182;2024-03-17T07:06:02;6.88;;;6.15;;
41903;SDS011;27586;51.124;4.182;2024-03-17T07:08:28;6.32;;;5.20;;
41903;SDS011;27586;51.124;4.182;2024-03-17T07:13:20;6.80;;;5.97;;
41903;SDS011;27586;51.124;4.182;2024-03-17T07:15:47;6.97;;;5.53;;
41903;SDS011;27586;51.124;4.182;2024-03-17T07:18:12;7.32;;;5.63;;
41903;SDS011;27586;51.124;4.182;2024-03-17T07:20:38;6.53;;;5.32;;
41903;SDS011;27586;51.124;4.182;2024-03-17T07:23:04;7.40;;;5.60;;
41903;SDS011;27586;51.124;4.182;2024-03-17T07:25:30;7.07;;;5.90;;
41903;SDS011;27586;51.124;4.182;2024-03-17T07:27:55;7.60;;;6.03;;
41903;SDS011;27586;51.124;4.182;2024-03-17T07:30:21;5.47;;;4.95;;
41903;SDS011;27586;51.124;4.182;2024-03-17T07:32:47;8.60;;;5.60;;
41903;SDS011;27586;51.124;4.182;2024-03-17T07:35:13;6.90;;;5.68;;
41903;SDS011;27586;51.124;4.182;2024-03-17T07:37:39;6.57;;;5.22;;
41903;SDS011;27586;51.124;4.182;2024-03-17T07:40:05;7.22;;;5.35;;
41903;SDS011;27586;51.124;4.182;2024-03-17T07:42:36;5.68;;;5.18;;
41903;SDS011;27586;51.124;4.182;2024-03-17T07:45:02;6.78;;;5.43;;
41903;SDS011;27586;51.124;4.182;2024-03-17T07:47:29;5.90;;;5.40;;
41903;SDS011;27586;51.124;4.182;2024-03-17T07:50:02;6.97;;;5.47;;
41903;SDS011;27586;51.124;4.182;2024-03-17T07:52:30;8.57;;;5.35;;
41903;SDS011;27586;51.124;4.182;2024-03-17T07:54:56;7.03;;;5.35;;
41903;SDS011;27586;51.124;4.182;2024-03-17T07:57:22;5.57;;;4.70;;
41903;SDS011;27586;51.124;4.182;2024-03-17T07:59:50;6.05;;;5.45;;
41903;SDS011;27586;51.124;4.182;2024-03-17T08:02:16;5.90;;;4.75;;
41903;SDS011;27586;51.124;4.182;2024-03-17T08:04:42;5.85;;;5.07;;
41903;SDS011;27586;51.124;4.182;2024-03-17T08:07:09;6.72;;;5.00;;
41903;SDS011;27586;51.124;4.182;2024-03-17T08:09:35;6.68;;;5.35;;
41903;SDS011;27586;51.124;4.182;2024-03-17T08:12:01;5.07;;;4.60;;
41903;SDS011;27586;51.124;4.182;2024-03-17T08:14:29;5.07;;;4.57;;
41903;SDS011;27586;51.124;4.182;2024-03-17T08:16:55;5.75;;;4.38;;
41903;SDS011;27586;51.124;4.182;2024-03-17T08:19:21;4.75;;;4.35;;
41903;SDS011;27586;51.124;4.182;2024-03-17T08:21:46;5.65;;;4.43;;
41903;SDS011;27586;51.124;4.182;2024-03-17T08:24:12;5.22;;;4.47;;
41903;SDS011;27586;51.124;4.182;2024-03-17T08:26:38;4.75;;;4.22;;
41903;SDS011;27586;51.124;4.182;2024-03-17T08:29:05;5.30;;;4.22;;
41903;SDS011;27586;51.124;4.182;2024-03-17T08:31:31;5.78;;;4.15;;
41903;SDS011;27586;51.124;4.182;2024-03-17T08:33:57;4.60;;;3.95;;
41903;SDS011;27586;51.124;4.182;2024-03-17T08:36:23;5.38;;;4.20;;
41903;SDS011;27586;51.124;4.182;2024-03-17T08:38:49;6.00;;;3.92;;
41903;SDS011;27586;51.124;4.182;2024-03-17T08:41:15;4.55;;;3.60;;
41903;SDS011;27586;51.124;4.182;2024-03-17T08:43:42;5.90;;;3.70;;
41903;SDS011;27586;51.124;4.182;2024-03-17T08:46:08;5.03;;;3.90;;
41903;SDS011;27586;51.124;4.182;2024-03-17T08:48:36;5.45;;;3.42;;
41903;SDS011;27586;51.124;4.182;2024-03-17T08:51:03;4.32;;;3.75;;
41903;SDS011;27586;51.124;4.182;2024-03-17T08:53:30;5.35;;;3.60;;
41903;SDS011;27586;51.124;4.182;2024-03-17T08:55:55;5.75;;;3.90;;
41903;SDS011;27586;51.124;4.182;2024-03-17T08:58:22;5.47;;;3.55;;
41903;SDS011;27586;51.124;4.182;2024-03-17T09:00:48;5.10;;;4.13;;
41903;SDS011;27586;51.124;4.182;2024-03-17T09:03:14;6.60;;;4.55;;
41903;SDS011;27586;51.124;4.182;2024-03-17T09:05:42;4.53;;;4.10;;
41903;SDS011;27586;51.124;4.182;2024-03-17T09:08:20;6.40;;;4.25;;
41903;SDS011;27586;51.124;4.182;2024-03-17T09:10:47;5.65;;;4.00;;
41903;SDS011;27586;51.124;4.182;2024-03-17T09:13:14;5.45;;;4.10;;
41903;SDS011;27586;51.124;4.182;2024-03-17T09:15:49;5.32;;;4.07;;
41903;SDS011;27586;51.124;4.182;2024-03-17T09:18:24;4.25;;;3.85;;
41903;SDS011;27586;51.124;4.182;2024-03-17T09:21:06;4.57;;;4.15;;
41903;SDS011;27586;51.124;4.182;2024-03-17T09:23:33;5.45;;;4.35;;
41903;SDS011;27586;51.124;4.182;2024-03-17T09:26:00;5.40;;;4.53;;
41903;SDS011;27586;51.124;4.182;2024-03-17T09:28:30;5.85;;;4.78;;
41903;SDS011;27586;51.124;4.182;2024-03-17T09:30:58;4.95;;;4.38;;
41903;SDS011;27586;51.124;4.182;2024-03-17T09:33:24;5.20;;;4.47;;
41903;SDS011;27586;51.124;4.182;2024-03-17T09:38:27;5.55;;;4.38;;
41903;SDS011;27586;51.124;4.182;2024-03-17T09:40:53;5.88;;;4.43;;
41903;SDS011;27586;51.124;4.182;2024-03-17T09:43:23;7.13;;;4.55;;
41903;SDS011;27586;51.124;4.182;2024-03-17T09:45:50;4.80;;;4.35;;
41903;SDS011;27586;51.124;4.182;2024-03-17T09:48:20;4.80;;;4.30;;
41903;SDS011;27586;51.124;4.182;2024-03-17T09:50:52;5.47;;;4.38;;
41903;SDS011;27586;51.124;4.182;2024-03-17T09:55:48;7.80;;;4.60;;
41903;SDS011;27586;51.124;4.182;2024-03-17T09:58:15;5.47;;;4.38;;
41903;SDS011;27586;51.124;4.182;2024-03-17T10:00:45;7.10;;;4.50;;
41903;SDS011;27586;51.124;4.182;2024-03-17T10:03:12;6.28;;;4.40;;
41903;SDS011;27586;51.124;4.182;2024-03-17T10:06:01;6.43;;;4.85;;
41903;SDS011;27586;51.124;4.182;2024-03-17T10:08:26;4.95;;;3.90;;
41903;SDS011;27586;51.124;4.182;2024-03-17T10:10:52;6.90;;;4.43;;
41903;SDS011;27586;51.124;4.182;2024-03-17T10:13:19;5.75;;;4.38;;
41903;SDS011;27586;51.124;4.182;2024-03-17T10:15:48;5.78;;;4.30;;
41903;SDS011;27586;51.124;4.182;2024-03-17T10:18:23;5.72;;;4.57;;
41903;SDS011;27586;51.124;4.182;2024-03-17T10:20:49;7.35;;;4.45;;
41903;SDS011;27586;51.124;4.182;2024-03-17T10:23:20;4.68;;;3.92;;
41903;SDS011;27586;51.124;4.182;2024-03-17T10:25:45;5.82;;;4.32;;
41903;SDS011;27586;51.124;4.182;2024-03-17T10:28:12;5.30;;;4.10;;
41903;SDS011;27586;51.124;4.182;2024-03-17T10:30:39;4.95;;;4.20;;
41903;SDS011;27586;51.124;4.182;2024-03-17T10:33:06;6.13;;;3.92;;
41903;SDS011;27586;51.124;4.182;2024-03-17T10:35:36;4.72;;;4.13;;
41903;SDS011;27586;51.124;4.182;2024-03-17T10:38:07;5.50;;;3.95;;
41903;SDS011;27586;51.124;4.182;2024-03-17T10:40:34;4.68;;;3.58;;
41903;SDS011;27586;51.124;4.182;2024-03-17T10:43:03;7.22;;;4.35;;
41903;SDS011;27586;51.124;4.182;2024-03-17T10:45:29;6.10;;;4.35;;
41903;SDS011;27586;51.124;4.182;2024-03-17T10:48:00;5.53;;;4.18;;
41903;SDS011;27586;51.124;4.182;2024-03-17T10:50:29;7.57;;;3.95;;
41903;SDS011;27586;51.124;4.182;2024-03-17T10:52:58;6.65;;;4.95;;
41903;SDS011;27586;51.124;4.182;2024-03-17T10:55:28;6.57;;;4.45;;
41903;SDS011;27586;51.124;4.182;2024-03-17T10:57:58;6.45;;;4.32;;
41903;SDS011;27586;51.124;4.182;2024-03-17T11:00:26;6.07;;;4.68;;
41903;SDS011;27586;51.124;4.182;2024-03-17T11:02:54;6.13;;;4.32;;
41903;SDS011;27586;51.124;4.182;2024-03-17T11:05:22;7.32;;;4.60;;
41903;SDS011;27586;51.124;4.182;2024-03-17T11:08:12;6.60;;;4.45;;
41903;SDS011;27586;51.124;4.182;2024-03-17T11:10:41;6.38;;;4.28;;
41903;SDS011;27586;51.124;4.182;2024-03-17T11:13:36;6.82;;;4.55;;
41903;SDS011;27586;51.124;4.182;2024-03-17T11:16:04;7.95;;;4.47;;
41903;SDS011;27586;51.124;4.182;2024-03-17T11:18:49;6.22;;;4.32;;
41903;SDS011;27586;51.124;4.182;2024-03-17T11:21:19;5.57;;;3.45;;
41903;SDS011;27586;51.124;4.182;2024-03-17T11:23:56;6.15;;;3.80;;
41903;SDS011;27586;51.124;4.182;2024-03-17T11:26:27;6.03;;;3.78;;
41903;SDS011;27586;51.124;4.182;2024-03-17T11:28:57;5.25;;;3.08;;
41903;SDS011;27586;51.124;4.182;2024-03-17T11:31:34;4.97;;;3.20;;
41903;SDS011;27586;51.124;4.182;2024-03-17T11:34:00;4.65;;;3.58;;
41903;SDS011;27586;51.124;4.182;2024-03-17T11:38:56;4.63;;;3.67;;
41903;SDS011;27586;51.124;4.182;2024-03-17T11:46:58;3.92;;;3.00;;
41903;SDS011;27586;51.124;4.182;2024-03-17T11:51:50;4.43;;;3.13;;
41903;SDS011;27586;51.124;4.182;2024-03-17T11:54:17;6.20;;;3.30;;
41903;SDS011;27586;51.124;4.182;2024-03-17T11:56:48;6.22;;;3.20;;
41903;SDS011;27586;51.124;4.182;2024-03-17T11:59:14;4.88;;;3.00;;
41903;SDS011;27586;51.124;4.182;2024-03-17T12:01:42;4.60;;;2.83;;
41903;SDS011;27586;51.124;4.182;2024-03-17T12:04:15;4.68;;;3.03;;
41903;SDS011;27586;51.124;4.182;2024-03-17T12:06:50;5.85;;;3.00;;
41903;SDS011;27586;51.124;4.182;2024-03-17T12:12:31;5.95;;;2.78;;
41903;SDS011;27586;51.124;4.182;2024-03-17T12:14:36;4.05;;;2.28;;
41903;SDS011;27586;51.124;4.182;2024-03-17T12:17:04;5.47;;;2.50;;
41903;SDS011;27586;51.124;4.182;2024-03-17T12:19:34;3.97;;;2.20;;
41903;SDS011;27586;51.124;4.182;2024-03-17T12:22:03;4.90;;;2.42;;
41903;SDS011;27586;51.124;4.182;2024-03-17T12:24:30;7.15;;;2.40;;
41903;SDS011;27586;51.124;4.182;2024-03-17T12:27:00;3.33;;;1.92;;
41903;SDS011;27586;51.124;4.182;2024-03-17T12:29:30;4.30;;;1.90;;
41903;SDS011;27586;51.124;4.182;2024-03-17T12:32:04;4.78;;;1.77;;
41903;SDS011;27586;51.124;4.182;2024-03-17T12:34:33;4.78;;;1.75;;
41903;SDS011;27586;51.124;4.182;2024-03-17T12:36:59;4.20;;;1.88;;
41903;SDS011;27586;51.124;4.182;2024-03-17T12:39:29;3.08;;;1.50;;
41903;SDS011;27586;51.124;4.182;2024-03-17T12:42:03;4.32;;;1.80;;
41903;SDS011;27586;51.124;4.182;2024-03-17T12:44:35;2.95;;;1.63;;
41903;SDS011;27586;51.124;4.182;2024-03-17T12:47:08;2.70;;;1.83;;
41903;SDS011;27586;51.124;4.182;2024-03-17T12:49:44;5.28;;;1.70;;
41903;SDS011;27586;51.124;4.182;2024-03-17T12:52:32;3.17;;;1.77;;
41903;SDS011;27586;51.124;4.182;2024-03-17T12:54:58;3.50;;;1.58;;
41903;SDS011;27586;51.124;4.182;2024-03-17T12:57:43;2.28;;;1.30;;
41903;SDS011;27586;51.124;4.182;2024-03-17T13:00:28;4.93;;;1.50;;
41903;SDS011;27586;51.124;4.182;2024-03-17T13:02:56;2.50;;;1.05;;
41903;SDS011;27586;51.124;4.182;2024-03-17T13:05:22;5.13;;;1.42;;
41903;SDS011;27586;51.124;4.182;2024-03-17T13:07:48;3.92;;;1.40;;
41903;SDS011;27586;51.124;4.182;2024-03-17T13:10:18;3.83;;;1.25;;
41903;SDS011;27586;51.124;4.182;2024-03-17T13:12:44;3.65;;;1.40;;
41903;SDS011;27586;51.124;4.182;2024-03-17T13:15:12;2.80;;;1.33;;
41903;SDS011;27586;51.124;4.182;2024-03-17T13:17:42;3.58;;;1.50;;
41903;SDS011;27586;51.124;4.182;2024-03-17T13:20:12;3.97;;;1.55;;
41903;SDS011;27586;51.124;4.182;2024-03-17T13:22:40;4.00;;;1.65;;
41903;SDS011;27586;51.124;4.182;2024-03-17T13:25:19;2.67;;;1.35;;
41903;SDS011;27586;51.124;4.182;2024-03-17T13:27:49;2.25;;;1.30;;
41903;SDS011;27586;51.124;4.182;2024-03-17T13:30:16;3.92;;;1.35;;
41903;SDS011;27586;51.124;4.182;2024-03-17T13:32:43;2.60;;;1.17;;
41903;SDS011;27586;51.124;4.182;2024-03-17T13:35:17;4.50;;;1.67;;
41903;SDS011;27586;51.124;4.182;2024-03-17T13:37:44;2.78;;;1.30;;
41903;SDS011;27586;51.124;4.182;2024-03-17T13:40:11;3.25;;;1.40;;
41903;SDS011;27586;51.124;4.182;2024-03-17T13:42:43;3.25;;;1.30;;
41903;SDS011;27586;51.124;4.182;2024-03-17T13:45:12;2.75;;;1.33;;
41903;SDS011;27586;51.124;4.182;2024-03-17T13:47:39;2.45;;;1.30;;
41903;SDS011;27586;51.124;4.182;2024-03-17T13:50:05;3.67;;;1.20;;
41903;SDS011;27586;51.124;4.182;2024-03-17T13:52:36;3.53;;;1.63;;
41903;SDS011;27586;51.124;4.182;2024-03-17T13:55:02;4.55;;;1.60;;
41903;SDS011;27586;51.124;4.182;2024-03-17T13:57:31;3.20;;;1.58;;
41903;SDS011;27586;51.124;4.182;2024-03-17T13:59:58;6.10;;;1.33;;
41903;SDS011;27586;51.124;4.182;2024-03-17T14:02:23;4.50;;;1.50;;
41903;SDS011;27586;51.124;4.182;2024-03-17T14:04:49;4.55;;;1.60;;
41903;SDS011;27586;51.124;4.182;2024-03-17T14:07:14;3.95;;;1.20;;
41903;SDS011;27586;51.124;4.182;2024-03-17T14:09:40;3.10;;;1.30;;
41903;SDS011;27586;51.124;4.182;2024-03-17T14:12:09;5.32;;;1.70;;
41903;SDS011;27586;51.124;4.182;2024-03-17T14:14:35;5.07;;;1.48;;
41903;SDS011;27586;51.124;4.182;2024-03-17T14:17:00;3.22;;;1.35;;
41903;SDS011;27586;51.124;4.182;2024-03-17T14:19:26;3.78;;;1.70;;
41903;SDS011;27586;51.124;4.182;2024-03-17T14:21:52;5.18;;;1.63;;
41903;SDS011;27586;51.124;4.182;2024-03-17T14:24:17;3.42;;;1.45;;
41903;SDS011;27586;51.124;4.182;2024-03-17T14:26:43;2.95;;;1.35;;
41903;SDS011;27586;51.124;4.182;2024-03-17T14:29:09;2.10;;;1.20;;
41903;SDS011;27586;51.124;4.182;2024-03-17T14:31:34;3.47;;;1.35;;
41903;SDS011;27586;51.124;4.182;2024-03-17T14:34:05;3.40;;;1.67;;
41903;SDS011;27586;51.124;4.182;2024-03-17T14:36:31;3.63;;;1.65;;
41903;SDS011;27586;51.124;4.182;2024-03-17T14:38:58;4.13;;;1.40;;
41903;SDS011;27586;51.124;4.182;2024-03-17T14:41:27;2.13;;;1.42;;
41903;SDS011;27586;51.124;4.182;2024-03-17T14:43:54;4.03;;;1.50;;
41903;SDS011;27586;51.124;4.182;2024-03-17T14:46:19;5.03;;;1.50;;
41903;SDS011;27586;51.124;4.182;2024-03-17T14:48:45;3.30;;;1.50;;
41903;SDS011;27586;51.124;4.182;2024-03-17T14:51:10;3.42;;;1.60;;
41903;SDS011;27586;51.124;4.182;2024-03-17T14:53:36;4.60;;;1.60;;
41903;SDS011;27586;51.124;4.182;2024-03-17T14:56:07;2.67;;;1.45;;
41903;SDS011;27586;51.124;4.182;2024-03-17T14:58:34;3.67;;;1.90;;
41903;SDS011;27586;51.124;4.182;2024-03-17T15:01:00;3.22;;;1.70;;
41903;SDS011;27586;51.124;4.182;2024-03-17T15:03:26;3.40;;;1.70;;
41903;SDS011;27586;51.124;4.182;2024-03-17T15:05:52;3.85;;;2.00;;
41903;SDS011;27586;51.124;4.182;2024-03-17T15:08:19;4.53;;;1.80;;
41903;SDS011;27586;51.124;4.182;2024-03-17T15:10:44;3.45;;;1.70;;
41903;SDS011;27586;51.124;4.182;2024-03-17T15:13:10;3.75;;;1.55;;